sensor_id;sensor_type;location;lat;lon;timestamp;pressure;altitude;pressure_sealevel;temperature;humidity
58843;BME280;44614;54.356;10.100;2023-04-21T00:01:41;102133.72;;;6.72;92.58
58843;BME280;44614;54.356;10.100;2023-04-21T00:04:06;102120.22;;;6.70;91.79
58843;BME280;44614;54.356;10.100;2023-04-21T00:06:33;102132.81;;;6.71;91.93
58843;BME280;44614;54.356;10.100;2023-04-21T00:08:58;102127.22;;;6.73;91.39
58843;BME280;44614;54.356;10.100;2023-04-21T00:11:23;102124.81;;;6.70;91.42
58843;BME280;44614;54.356;10.100;2023-04-21T00:13:49;102123.97;;;6.69;91.06
58843;BME280;44614;54.356;10.100;2023-04-21T00:16:14;102122.09;;;6.70;90.93
58843;BME280;44614;54.356;10.100;2023-04-21T00:18:39;102112.34;;;6.67;90.95
58843;BME280;44614;54.356;10.100;2023-04-21T00:21:04;102116.09;;;6.66;90.73
58843;BME280;44614;54.356;10.100;2023-04-21T00:23:30;102119.69;;;6.67;90.63
58843;BME280;44614;54.356;10.100;2023-04-21T00:25:55;102117.66;;;6.69;90.04
58843;BME280;44614;54.356;10.100;2023-04-21T00:28:20;102125.53;;;6.72;89.44
58843;BME280;44614;54.356;10.100;2023-04-21T00:30:45;102127.03;;;6.74;89.34
58843;BME280;44614;54.356;10.100;2023-04-21T00:33:11;102119.03;;;6.73;89.43
58843;BME280;44614;54.356;10.100;2023-04-21T00:35:36;102114.41;;;6.73;89.43
58843;BME280;44614;54.356;10.100;2023-04-21T00:38:01;102113.56;;;6.73;89.65
58843;BME280;44614;54.356;10.100;2023-04-21T00:40:26;102112.88;;;6.71;89.63
58843;BME280;44614;54.356;10.100;2023-04-21T00:42:52;102112.19;;;6.69;89.72
58843;BME280;44614;54.356;10.100;2023-04-21T00:45:17;102106.75;;;6.69;89.49
58843;BME280;44614;54.356;10.100;2023-04-21T00:47:42;102112.19;;;6.69;89.58
58843;BME280;44614;54.356;10.100;2023-04-21T00:50:08;102107.06;;;6.66;89.59
58843;BME280;44614;54.356;10.100;2023-04-21T00:52:33;102106.22;;;6.65;89.51
58843;BME280;44614;54.356;10.100;2023-04-21T00:54:59;102107.06;;;6.66;89.01
58843;BME280;44614;54.356;10.100;2023-04-21T00:57:24;102101.59;;;6.66;89.35
58843;BME280;44614;54.356;10.100;2023-04-21T00:59:51;102012.25;;;6.09;89.32
58843;BME280;44614;54.356;10.100;2023-04-21T01:02:16;102093.75;;;6.63;89.23
58843;BME280;44614;54.356;10.100;2023-04-21T01:04:42;102098.53;;;6.61;89.15
58843;BME280;44614;54.356;10.100;2023-04-21T01:07:07;102103.09;;;6.60;89.07
58843;BME280;44614;54.356;10.100;2023-04-21T01:09:34;102100.38;;;6.60;89.02
58843;BME280;44614;54.356;10.100;2023-04-21T01:12:03;102098.34;;;6.62;88.36
58843;BME280;44614;54.356;10.100;2023-04-21T01:14:28;102089.31;;;6.62;88.43
58843;BME280;44614;54.356;10.100;2023-04-21T01:16:53;102093.06;;;6.61;88.31
58843;BME280;44614;54.356;10.100;2023-04-21T01:19:19;102085.88;;;6.59;88.19
58843;BME280;44614;54.356;10.100;2023-04-21T01:21:44;102090.34;;;6.61;88.18
58843;BME280;44614;54.356;10.100;2023-04-21T01:24:09;102091.34;;;6.59;88.18
58843;BME280;44614;54.356;10.100;2023-04-21T01:26:35;102088.59;;;6.59;88.09
58843;BME280;44614;54.356;10.100;2023-04-21T01:29:01;102096.78;;;6.59;88.17
58843;BME280;44614;54.356;10.100;2023-04-21T01:31:26;102087.75;;;6.59;88.04
58843;BME280;44614;54.356;10.100;2023-04-21T01:33:51;102104.00;;;6.61;87.91
58843;BME280;44614;54.356;10.100;2023-04-21T01:36:16;102086.72;;;6.60;87.94
58843;BME280;44614;54.356;10.100;2023-04-21T01:38:42;102088.59;;;6.59;88.23
58843;BME280;44614;54.356;10.100;2023-04-21T01:41:07;102084.19;;;6.58;88.44
58843;BME280;44614;54.356;10.100;2023-04-21T01:43:33;102087.94;;;6.57;88.58
58843;BME280;44614;54.356;10.100;2023-04-21T01:45:58;102089.97;;;6.55;88.40
58843;BME280;44614;54.356;10.100;2023-04-21T01:48:24;102075.31;;;6.56;88.40
58843;BME280;44614;54.356;10.100;2023-04-21T01:50:49;102078.91;;;6.57;88.64
58843;BME280;44614;54.356;10.100;2023-04-21T01:53:14;102067.28;;;6.55;88.56
58843;BME280;44614;54.356;10.100;2023-04-21T01:55:40;102068.31;;;6.54;88.55
58843;BME280;44614;54.356;10.100;2023-04-21T01:58:05;102075.78;;;6.52;88.70
58843;BME280;44614;54.356;10.100;2023-04-21T02:00:30;102066.09;;;6.49;88.86
58843;BME280;44614;54.356;10.100;2023-04-21T02:02:55;102069.16;;;6.46;88.99
58843;BME280;44614;54.356;10.100;2023-04-21T02:05:20;102066.56;;;6.45;89.13
58843;BME280;44614;54.356;10.100;2023-04-21T02:07:46;102069.47;;;6.43;89.44
58843;BME280;44614;54.356;10.100;2023-04-21T02:10:11;102065.03;;;6.42;89.22
58843;BME280;44614;54.356;10.100;2023-04-21T02:12:36;102068.63;;;6.43;89.30
58843;BME280;44614;54.356;10.100;2023-04-21T02:15:02;102061.47;;;6.42;89.26
58843;BME280;44614;54.356;10.100;2023-04-21T02:17:27;102062.97;;;6.44;89.22
58843;BME280;44614;54.356;10.100;2023-04-21T02:19:52;102057.69;;;6.43;89.19
58843;BME280;44614;54.356;10.100;2023-04-21T02:22:18;102060.25;;;6.44;88.96
58843;BME280;44614;54.356;10.100;2023-04-21T02:24:43;102058.22;;;6.46;88.81
58843;BME280;44614;54.356;10.100;2023-04-21T02:27:08;102059.06;;;6.47;88.78
58843;BME280;44614;54.356;10.100;2023-04-21T02:29:33;102053.81;;;6.45;89.05
58843;BME280;44614;54.356;10.100;2023-04-21T02:31:59;102056.53;;;6.45;88.76
58843;BME280;44614;54.356;10.100;2023-04-21T02:34:24;102056.53;;;6.45;88.90
58843;BME280;44614;54.356;10.100;2023-04-21T02:36:50;102050.19;;;6.45;88.81
58843;BME280;44614;54.356;10.100;2023-04-21T02:39:15;102050.19;;;6.45;88.86
58843;BME280;44614;54.356;10.100;2023-04-21T02:41:40;102053.94;;;6.44;89.01
58843;BME280;44614;54.356;10.100;2023-04-21T02:44:05;102054.97;;;6.43;89.24
58843;BME280;44614;54.356;10.100;2023-04-21T02:46:30;102058.88;;;6.40;89.13
58843;BME280;44614;54.356;10.100;2023-04-21T02:48:56;102064.19;;;6.42;89.04
58843;BME280;44614;54.356;10.100;2023-04-21T02:51:21;102046.09;;;6.41;88.85
58843;BME280;44614;54.356;10.100;2023-04-21T02:53:46;102053.09;;;6.43;88.60
58843;BME280;44614;54.356;10.100;2023-04-21T02:56:11;102045.94;;;6.42;88.50
58843;BME280;44614;54.356;10.100;2023-04-21T02:58:37;102042.88;;;6.45;88.13
58843;BME280;44614;54.356;10.100;2023-04-21T03:01:03;102045.63;;;6.45;88.28
58843;BME280;44614;54.356;10.100;2023-04-21T03:03:28;102034.69;;;6.45;88.20
58843;BME280;44614;54.356;10.100;2023-04-21T03:08:22;102042.00;;;6.45;87.87
58843;BME280;44614;54.356;10.100;2023-04-21T03:10:47;102039.28;;;6.45;88.12
58843;BME280;44614;54.356;10.100;2023-04-21T03:13:12;102032.13;;;6.44;88.03
58843;BME280;44614;54.356;10.100;2023-04-21T03:15:38;102042.00;;;6.45;87.81
58843;BME280;44614;54.356;10.100;2023-04-21T03:18:03;102037.44;;;6.45;87.55
58843;BME280;44614;54.356;10.100;2023-04-21T03:20:28;102037.44;;;6.45;87.34
58843;BME280;44614;54.356;10.100;2023-04-21T03:22:54;102030.09;;;6.46;87.37
58843;BME280;44614;54.356;10.100;2023-04-21T03:25:19;102032.81;;;6.46;87.02
58843;BME280;44614;54.356;10.100;2023-04-21T03:27:44;102025.16;;;6.49;86.30
58843;BME280;44614;54.356;10.100;2023-04-21T03:30:10;102022.44;;;6.49;86.42
58843;BME280;44614;54.356;10.100;2023-04-21T03:32:35;102021.72;;;6.47;86.63
58843;BME280;44614;54.356;10.100;2023-04-21T03:35:00;102028.22;;;6.46;86.79
58843;BME280;44614;54.356;10.100;2023-04-21T03:37:26;102023.59;;;6.47;86.60
58843;BME280;44614;54.356;10.100;2023-04-21T03:39:51;102020.03;;;6.46;86.42
58843;BME280;44614;54.356;10.100;2023-04-21T03:42:16;102029.25;;;6.45;86.63
58843;BME280;44614;54.356;10.100;2023-04-21T03:44:41;102028.34;;;6.45;86.51
58843;BME280;44614;54.356;10.100;2023-04-21T03:47:06;102023.78;;;6.45;86.41
58843;BME280;44614;54.356;10.100;2023-04-21T03:49:34;102016.59;;;6.44;86.50
58843;BME280;44614;54.356;10.100;2023-04-21T03:52:00;102018.47;;;6.44;86.59
58843;BME280;44614;54.356;10.100;2023-04-21T03:54:25;102021.38;;;6.42;86.49
58843;BME280;44614;54.356;10.100;2023-04-21T03:56:50;102035.03;;;6.42;86.41
58843;BME280;44614;54.356;10.100;2023-04-21T03:59:15;102033.16;;;6.43;86.35
58843;BME280;44614;54.356;10.100;2023-04-21T04:01:41;102031.25;;;6.43;86.13
58843;BME280;44614;54.356;10.100;2023-04-21T04:04:07;102027.69;;;6.43;86.15
58843;BME280;44614;54.356;10.100;2023-04-21T04:06:32;102019.50;;;6.43;85.98
58843;BME280;44614;54.356;10.100;2023-04-21T04:08:58;102024.09;;;6.42;85.79
58843;BME280;44614;54.356;10.100;2023-04-21T04:11:23;102020.53;;;6.42;85.77
58843;BME280;44614;54.356;10.100;2023-04-21T04:13:48;102026.13;;;6.40;85.58
58843;BME280;44614;54.356;10.100;2023-04-21T04:16:14;102020.69;;;6.40;85.58
58843;BME280;44614;54.356;10.100;2023-04-21T04:18:39;102016.78;;;6.43;85.22
58843;BME280;44614;54.356;10.100;2023-04-21T04:21:07;102024.97;;;6.43;84.81
58843;BME280;44614;54.356;10.100;2023-04-21T04:23:33;102018.31;;;6.45;84.58
58843;BME280;44614;54.356;10.100;2023-04-21T04:25:58;102021.06;;;6.45;84.79
58843;BME280;44614;54.356;10.100;2023-04-21T04:28:25;102018.47;;;6.44;84.84
58843;BME280;44614;54.356;10.100;2023-04-21T04:30:50;102022.06;;;6.44;84.89
58843;BME280;44614;54.356;10.100;2023-04-21T04:33:17;102022.06;;;6.44;85.01
58843;BME280;44614;54.356;10.100;2023-04-21T04:35:42;102015.75;;;6.44;84.90
58843;BME280;44614;54.356;10.100;2023-04-21T04:38:07;102019.31;;;6.44;84.67
58843;BME280;44614;54.356;10.100;2023-04-21T04:40:32;102014.56;;;6.46;84.44
58843;BME280;44614;54.356;10.100;2023-04-21T04:42:57;102012.34;;;6.50;84.43
58843;BME280;44614;54.356;10.100;2023-04-21T04:45:24;102011.31;;;6.51;84.48
58843;BME280;44614;54.356;10.100;2023-04-21T04:47:50;102004.84;;;6.52;84.30
58843;BME280;44614;54.356;10.100;2023-04-21T04:50:15;102014.56;;;6.54;84.19
58843;BME280;44614;54.356;10.100;2023-04-21T04:52:40;102011.53;;;6.57;83.62
58843;BME280;44614;54.356;10.100;2023-04-21T04:55:06;102013.22;;;6.58;83.49
58843;BME280;44614;54.356;10.100;2023-04-21T04:57:32;102008.47;;;6.61;83.23
58843;BME280;44614;54.356;10.100;2023-04-21T04:59:57;102015.28;;;6.65;83.24
58843;BME280;44614;54.356;10.100;2023-04-21T05:02:22;102022.25;;;6.67;82.90
58843;BME280;44614;54.356;10.100;2023-04-21T05:04:50;102021.94;;;6.70;83.01
58843;BME280;44614;54.356;10.100;2023-04-21T05:07:15;102020.75;;;6.73;82.74
58843;BME280;44614;54.356;10.100;2023-04-21T05:09:41;102019.56;;;6.75;82.61
58843;BME280;44614;54.356;10.100;2023-04-21T05:12:06;102019.38;;;6.77;82.58
58843;BME280;44614;54.356;10.100;2023-04-21T05:14:31;102010.69;;;6.81;82.07
58843;BME280;44614;54.356;10.100;2023-04-21T05:16:57;102013.75;;;6.87;82.08
58843;BME280;44614;54.356;10.100;2023-04-21T05:19:22;102005.41;;;6.88;82.08
58843;BME280;44614;54.356;10.100;2023-04-21T05:21:47;102011.38;;;6.92;82.10
58843;BME280;44614;54.356;10.100;2023-04-21T05:24:12;102008.13;;;6.96;81.62
58843;BME280;44614;54.356;10.100;2023-04-21T05:26:38;102013.91;;;7.01;81.57
58843;BME280;44614;54.356;10.100;2023-04-21T05:29:03;102011.53;;;7.06;81.32
58843;BME280;44614;54.356;10.100;2023-04-21T05:31:28;102006.06;;;7.15;80.53
58843;BME280;44614;54.356;10.100;2023-04-21T05:33:53;102025.38;;;7.21;80.54
58843;BME280;44614;54.356;10.100;2023-04-21T05:36:19;102011.50;;;7.31;80.09
58843;BME280;44614;54.356;10.100;2023-04-21T05:38:44;102016.09;;;7.39;79.32
58843;BME280;44614;54.356;10.100;2023-04-21T05:41:10;102015.09;;;7.48;79.35
58843;BME280;44614;54.356;10.100;2023-04-21T05:43:35;102003.28;;;7.55;79.24
58843;BME280;44614;54.356;10.100;2023-04-21T05:46:00;102019.66;;;7.64;78.92
58843;BME280;44614;54.356;10.100;2023-04-21T05:48:26;102006.81;;;7.72;79.02
58843;BME280;44614;54.356;10.100;2023-04-21T05:50:52;102014.78;;;7.82;78.78
58843;BME280;44614;54.356;10.100;2023-04-21T05:53:18;101998.72;;;7.87;77.71
58843;BME280;44614;54.356;10.100;2023-04-21T05:55:43;102004.16;;;7.95;78.22
58843;BME280;44614;54.356;10.100;2023-04-21T05:58:08;102007.53;;;8.05;77.73
58843;BME280;44614;54.356;10.100;2023-04-21T06:00:33;101997.94;;;8.10;76.83
58843;BME280;44614;54.356;10.100;2023-04-21T06:02:59;102006.63;;;8.13;76.80
58843;BME280;44614;54.356;10.100;2023-04-21T06:05:24;102002.81;;;8.22;76.46
58843;BME280;44614;54.356;10.100;2023-04-21T06:07:49;102006.75;;;8.28;76.13
58843;BME280;44614;54.356;10.100;2023-04-21T06:10:15;102002.75;;;8.39;76.99
58843;BME280;44614;54.356;10.100;2023-04-21T06:12:41;102001.84;;;8.46;75.69
58843;BME280;44614;54.356;10.100;2023-04-21T06:15:06;101996.31;;;8.54;76.15
58843;BME280;44614;54.356;10.100;2023-04-21T06:17:32;101996.56;;;8.68;75.90
58843;BME280;44614;54.356;10.100;2023-04-21T06:19:57;102001.97;;;8.76;74.92
58843;BME280;44614;54.356;10.100;2023-04-21T06:22:22;101995.41;;;8.85;74.35
58843;BME280;44614;54.356;10.100;2023-04-21T06:24:47;101983.72;;;8.91;73.54
58843;BME280;44614;54.356;10.100;2023-04-21T06:27:13;101983.63;;;8.99;73.01
58843;BME280;44614;54.356;10.100;2023-04-21T06:29:38;101992.53;;;9.01;73.10
58843;BME280;44614;54.356;10.100;2023-04-21T06:32:04;101985.81;;;9.04;72.57
58843;BME280;44614;54.356;10.100;2023-04-21T06:34:29;101986.78;;;9.11;72.39
58843;BME280;44614;54.356;10.100;2023-04-21T06:36:54;101976.63;;;9.20;72.50
58843;BME280;44614;54.356;10.100;2023-04-21T06:39:19;101980.03;;;9.37;71.39
58843;BME280;44614;54.356;10.100;2023-04-21T06:41:45;101981.25;;;9.49;71.17
58843;BME280;44614;54.356;10.100;2023-04-21T06:44:10;101984.75;;;9.58;70.34
58843;BME280;44614;54.356;10.100;2023-04-21T06:46:39;101980.44;;;9.63;69.50
58843;BME280;44614;54.356;10.100;2023-04-21T06:49:04;101974.25;;;9.76;69.88
58843;BME280;44614;54.356;10.100;2023-04-21T06:51:30;101983.91;;;9.72;68.93
58843;BME280;44614;54.356;10.100;2023-04-21T06:53:56;101985.16;;;9.69;69.95
58843;BME280;44614;54.356;10.100;2023-04-21T06:56:21;101978.31;;;9.65;68.69
58843;BME280;44614;54.356;10.100;2023-04-21T06:58:46;101974.47;;;9.74;69.67
58843;BME280;44614;54.356;10.100;2023-04-21T07:01:11;101980.03;;;9.96;69.62
58843;BME280;44614;54.356;10.100;2023-04-21T07:03:37;101973.66;;;10.10;67.93
58843;BME280;44614;54.356;10.100;2023-04-21T07:06:02;101969.69;;;10.13;67.85
58843;BME280;44614;54.356;10.100;2023-04-21T07:08:27;101969.94;;;10.18;68.36
58843;BME280;44614;54.356;10.100;2023-04-21T07:10:52;101967.00;;;10.34;67.39
58843;BME280;44614;54.356;10.100;2023-04-21T07:13:17;101964.06;;;10.21;67.38
58843;BME280;44614;54.356;10.100;2023-04-21T07:15:43;101966.81;;;10.21;67.53
58843;BME280;44614;54.356;10.100;2023-04-21T07:18:08;101957.06;;;10.33;67.18
58843;BME280;44614;54.356;10.100;2023-04-21T07:20:33;101964.53;;;10.39;67.37
58843;BME280;44614;54.356;10.100;2023-04-21T07:22:58;101962.03;;;10.44;67.44
58843;BME280;44614;54.356;10.100;2023-04-21T07:25:24;101959.13;;;10.46;66.93
58843;BME280;44614;54.356;10.100;2023-04-21T07:27:49;101971.03;;;10.53;66.68
58843;BME280;44614;54.356;10.100;2023-04-21T07:30:15;101954.97;;;10.57;66.42
58843;BME280;44614;54.356;10.100;2023-04-21T07:32:40;101962.75;;;10.74;65.78
58843;BME280;44614;54.356;10.100;2023-04-21T07:35:06;101948.44;;;10.79;65.05
58843;BME280;44614;54.356;10.100;2023-04-21T07:37:31;101950.53;;;10.77;64.80
58843;BME280;44614;54.356;10.100;2023-04-21T07:39:57;101952.16;;;10.93;65.77
58843;BME280;44614;54.356;10.100;2023-04-21T07:42:22;101951.13;;;11.22;64.71
58843;BME280;44614;54.356;10.100;2023-04-21T07:44:47;101944.84;;;11.35;63.40
58843;BME280;44614;54.356;10.100;2023-04-21T07:47:13;101953.31;;;11.33;63.42
58843;BME280;44614;54.356;10.100;2023-04-21T07:49:38;101943.44;;;11.45;64.67
58843;BME280;44614;54.356;10.100;2023-04-21T07:52:03;101941.03;;;11.70;63.44
58843;BME280;44614;54.356;10.100;2023-04-21T07:54:28;101941.16;;;11.84;62.03
58843;BME280;44614;54.356;10.100;2023-04-21T07:56:53;101934.63;;;11.91;62.25
58843;BME280;44614;54.356;10.100;2023-04-21T07:59:19;101936.00;;;11.81;61.81
58843;BME280;44614;54.356;10.100;2023-04-21T08:01:44;101939.88;;;11.86;62.89
58843;BME280;44614;54.356;10.100;2023-04-21T08:04:09;101935.94;;;12.02;62.37
58843;BME280;44614;54.356;10.100;2023-04-21T08:06:35;101946.34;;;12.20;61.25
58843;BME280;44614;54.356;10.100;2023-04-21T08:09:00;101944.03;;;12.24;61.49
58843;BME280;44614;54.356;10.100;2023-04-21T08:11:25;101931.78;;;12.33;61.25
58843;BME280;44614;54.356;10.100;2023-04-21T08:13:52;101940.25;;;12.31;60.47
58843;BME280;44614;54.356;10.100;2023-04-21T08:16:17;101932.44;;;12.41;60.78
58843;BME280;44614;54.356;10.100;2023-04-21T08:18:42;101937.97;;;12.55;60.93
58843;BME280;44614;54.356;10.100;2023-04-21T08:21:08;101932.25;;;12.63;59.77
58843;BME280;44614;54.356;10.100;2023-04-21T08:23:33;101927.78;;;12.62;60.09
58843;BME280;44614;54.356;10.100;2023-04-21T08:25:59;101929.06;;;12.66;60.72
58843;BME280;44614;54.356;10.100;2023-04-21T08:28:24;101931.19;;;12.64;59.21
58843;BME280;44614;54.356;10.100;2023-04-21T08:30:49;101928.44;;;12.57;59.67
58843;BME280;44614;54.356;10.100;2023-04-21T08:33:14;101920.38;;;12.49;60.05
58843;BME280;44614;54.356;10.100;2023-04-21T08:35:40;101925.00;;;12.35;60.26
58843;BME280;44614;54.356;10.100;2023-04-21T08:38:06;101928.41;;;12.37;60.94
58843;BME280;44614;54.356;10.100;2023-04-21T08:40:33;101917.63;;;12.56;60.43
58843;BME280;44614;54.356;10.100;2023-04-21T08:42:58;101937.06;;;12.34;60.21
58843;BME280;44614;54.356;10.100;2023-04-21T08:45:24;101927.75;;;12.35;60.82
58843;BME280;44614;54.356;10.100;2023-04-21T08:47:49;101913.75;;;12.30;62.08
58843;BME280;44614;54.356;10.100;2023-04-21T08:50:15;101917.63;;;12.69;61.33
58843;BME280;44614;54.356;10.100;2023-04-21T08:52:40;101919.56;;;12.75;60.39
58843;BME280;44614;54.356;10.100;2023-04-21T08:55:06;101912.34;;;12.87;60.47
58843;BME280;44614;54.356;10.100;2023-04-21T08:57:31;101925.69;;;13.17;60.18
58843;BME280;44614;54.356;10.100;2023-04-21T08:59:57;101916.31;;;13.45;59.54
58843;BME280;44614;54.356;10.100;2023-04-21T09:02:22;101918.91;;;13.39;58.19
58843;BME280;44614;54.356;10.100;2023-04-21T09:04:47;101918.69;;;13.34;59.96
58843;BME280;44614;54.356;10.100;2023-04-21T09:07:30;101906.56;;;13.22;59.37
58843;BME280;44614;54.356;10.100;2023-04-21T09:09:56;101912.56;;;12.86;59.66
58843;BME280;44614;54.356;10.100;2023-04-21T09:12:22;101918.28;;;12.71;60.81
58843;BME280;44614;54.356;10.100;2023-04-21T09:14:47;101917.66;;;12.82;61.85
58843;BME280;44614;54.356;10.100;2023-04-21T09:17:14;101912.09;;;13.22;60.42
58843;BME280;44614;54.356;10.100;2023-04-21T09:19:40;101912.53;;;13.26;60.74
58843;BME280;44614;54.356;10.100;2023-04-21T09:22:05;101918.59;;;13.61;59.40
58843;BME280;44614;54.356;10.100;2023-04-21T09:24:30;101911.16;;;13.68;57.77
58843;BME280;44614;54.356;10.100;2023-04-21T09:26:55;101922.63;;;13.72;57.99
58843;BME280;44614;54.356;10.100;2023-04-21T09:29:21;101914.16;;;13.60;57.25
58843;BME280;44614;54.356;10.100;2023-04-21T09:31:47;101922.44;;;13.53;58.67
58843;BME280;44614;54.356;10.100;2023-04-21T09:34:20;101919.69;;;13.47;58.79
58843;BME280;44614;54.356;10.100;2023-04-21T09:36:47;101912.41;;;13.72;59.36
58843;BME280;44614;54.356;10.100;2023-04-21T09:39:12;101933.66;;;13.65;56.88
58843;BME280;44614;54.356;10.100;2023-04-21T09:41:38;101917.81;;;13.40;59.58
58843;BME280;44614;54.356;10.100;2023-04-21T09:44:03;101915.81;;;13.74;59.68
58843;BME280;44614;54.356;10.100;2023-04-21T09:46:31;101924.22;;;13.93;57.90
58843;BME280;44614;54.356;10.100;2023-04-21T09:48:56;101913.72;;;14.08;58.18
58843;BME280;44614;54.356;10.100;2023-04-21T09:51:24;101918.06;;;13.97;56.61
58843;BME280;44614;54.356;10.100;2023-04-21T09:53:51;101937.25;;;13.72;57.02
58843;BME280;44614;54.356;10.100;2023-04-21T09:56:17;101911.25;;;13.35;58.37
58843;BME280;44614;54.356;10.100;2023-04-21T09:58:45;101908.66;;;13.53;59.03
58843;BME280;44614;54.356;10.100;2023-04-21T10:01:12;101905.03;;;13.59;57.97
58843;BME280;44614;54.356;10.100;2023-04-21T10:03:38;101898.63;;;13.65;58.25
58843;BME280;44614;54.356;10.100;2023-04-21T10:06:04;101908.66;;;13.47;56.95
58843;BME280;44614;54.356;10.100;2023-04-21T10:08:30;101902.78;;;13.23;57.88
58843;BME280;44614;54.356;10.100;2023-04-21T10:10:55;101906.56;;;13.22;58.04
58843;BME280;44614;54.356;10.100;2023-04-21T10:13:21;101904.28;;;13.26;58.48
58843;BME280;44614;54.356;10.100;2023-04-21T10:15:46;101898.53;;;13.34;58.92
58843;BME280;44614;54.356;10.100;2023-04-21T10:20:49;101888.66;;;13.71;58.17
58843;BME280;44614;54.356;10.100;2023-04-21T10:23:24;101898.06;;;14.02;57.26
58843;BME280;44614;54.356;10.100;2023-04-21T10:25:49;101891.06;;;13.93;57.26
58843;BME280;44614;54.356;10.100;2023-04-21T10:28:16;101888.41;;;13.79;57.71
58843;BME280;44614;54.356;10.100;2023-04-21T10:30:42;101882.06;;;13.65;58.49
58843;BME280;44614;54.356;10.100;2023-04-21T10:33:07;101877.50;;;13.91;58.73
58843;BME280;44614;54.356;10.100;2023-04-21T10:38:32;101883.50;;;13.81;56.87
58843;BME280;44614;54.356;10.100;2023-04-21T10:41:07;101880.50;;;13.89;58.09
58843;BME280;44614;54.356;10.100;2023-04-21T10:43:43;101869.84;;;14.31;59.45
58843;BME280;44614;54.356;10.100;2023-04-21T10:48:53;101877.31;;;14.24;56.34
58843;BME280;44614;54.356;10.100;2023-04-21T10:51:18;101865.16;;;14.32;56.57
58843;BME280;44614;54.356;10.100;2023-04-21T10:53:46;101861.84;;;14.48;55.94
58843;BME280;44614;54.356;10.100;2023-04-21T10:56:11;101862.28;;;14.52;57.33
58843;BME280;44614;54.356;10.100;2023-04-21T10:58:36;101869.53;;;14.46;55.88
58843;BME280;44614;54.356;10.100;2023-04-21T11:01:02;101865.72;;;14.41;55.73
58843;BME280;44614;54.356;10.100;2023-04-21T11:03:32;101864.22;;;14.45;57.14
58843;BME280;44614;54.356;10.100;2023-04-21T11:05:58;101846.78;;;14.44;56.69
58843;BME280;44614;54.356;10.100;2023-04-21T11:08:23;101850.00;;;14.41;57.00
58843;BME280;44614;54.356;10.100;2023-04-21T11:10:55;101852.19;;;14.64;56.42
58843;BME280;44614;54.356;10.100;2023-04-21T11:13:21;101863.59;;;14.43;56.28
58843;BME280;44614;54.356;10.100;2023-04-21T11:18:30;101839.34;;;14.95;55.58
58843;BME280;44614;54.356;10.100;2023-04-21T11:21:05;101840.38;;;15.00;54.75
58843;BME280;44614;54.356;10.100;2023-04-21T11:23:30;101839.03;;;14.84;55.46
58843;BME280;44614;54.356;10.100;2023-04-21T11:25:57;101845.94;;;14.44;56.00
58843;BME280;44614;54.356;10.100;2023-04-21T11:28:23;101835.59;;;14.32;56.82
58843;BME280;44614;54.356;10.100;2023-04-21T11:30:48;101839.84;;;14.35;57.08
58843;BME280;44614;54.356;10.100;2023-04-21T11:33:14;101831.75;;;14.33;56.43
58843;BME280;44614;54.356;10.100;2023-04-21T11:35:39;101829.56;;;14.42;57.25
58843;BME280;44614;54.356;10.100;2023-04-21T11:38:05;101826.97;;;14.54;57.30
58843;BME280;44614;54.356;10.100;2023-04-21T11:40:42;101826.50;;;14.82;57.92
58843;BME280;44614;54.356;10.100;2023-04-21T11:43:08;101815.19;;;15.27;57.68
58843;BME280;44614;54.356;10.100;2023-04-21T11:45:33;101822.16;;;15.29;54.78
58843;BME280;44614;54.356;10.100;2023-04-21T11:48:11;101806.81;;;15.15;55.34
58843;BME280;44614;54.356;10.100;2023-04-21T11:50:37;101808.09;;;15.31;56.70
58843;BME280;44614;54.356;10.100;2023-04-21T11:53:02;101814.31;;;15.45;56.82
58843;BME280;44614;54.356;10.100;2023-04-21T11:55:28;101815.75;;;15.10;55.54
58843;BME280;44614;54.356;10.100;2023-04-21T11:57:53;101798.19;;;15.05;56.63
58843;BME280;44614;54.356;10.100;2023-04-21T12:00:21;101811.97;;;14.86;55.51
58843;BME280;44614;54.356;10.100;2023-04-21T12:02:53;101808.84;;;15.01;57.88
58843;BME280;44614;54.356;10.100;2023-04-21T12:05:18;101807.78;;;15.39;56.01
58843;BME280;44614;54.356;10.100;2023-04-21T12:07:44;101815.88;;;15.04;55.01
58843;BME280;44614;54.356;10.100;2023-04-21T12:12:36;101802.34;;;14.96;55.29
58843;BME280;44614;54.356;10.100;2023-04-21T12:15:01;101790.69;;;14.87;55.21
58843;BME280;44614;54.356;10.100;2023-04-21T12:17:33;101796.59;;;14.72;55.92
58843;BME280;44614;54.356;10.100;2023-04-21T12:20:02;101781.66;;;15.17;58.33
58843;BME280;44614;54.356;10.100;2023-04-21T12:22:29;101783.03;;;15.93;53.17
58843;BME280;44614;54.356;10.100;2023-04-21T12:24:54;101784.56;;;16.30;52.88
58843;BME280;44614;54.356;10.100;2023-04-21T12:27:20;101775.66;;;16.40;51.90
58843;BME280;44614;54.356;10.100;2023-04-21T12:29:45;101768.78;;;16.66;51.88
58843;BME280;44614;54.356;10.100;2023-04-21T12:32:10;101774.13;;;17.03;50.40
58843;BME280;44614;54.356;10.100;2023-04-21T12:34:36;101776.53;;;16.52;50.31
58843;BME280;44614;54.356;10.100;2023-04-21T12:37:01;101750.59;;;16.58;51.99
58843;BME280;44614;54.356;10.100;2023-04-21T12:39:26;101759.63;;;17.01;50.26
58843;BME280;44614;54.356;10.100;2023-04-21T12:41:52;101759.53;;;16.84;50.25
58843;BME280;44614;54.356;10.100;2023-04-21T12:44:18;101764.09;;;17.02;48.98
58843;BME280;44614;54.356;10.100;2023-04-21T12:46:43;101753.22;;;17.12;50.15
58843;BME280;44614;54.356;10.100;2023-04-21T12:49:08;101753.75;;;17.38;48.31
58843;BME280;44614;54.356;10.100;2023-04-21T12:51:35;101751.25;;;17.36;48.04
58843;BME280;44614;54.356;10.100;2023-04-21T12:54:00;101747.00;;;17.34;47.83